createdAt,value
2022-10-22T00:03:42.432Z,13.33
2022-10-22T00:08:44.011Z,13.33
2022-10-22T00:18:53.281Z,13.29
2022-10-22T00:23:55.629Z,13.34
2022-10-22T00:28:57.245Z,13.28
2022-10-22T00:33:58.653Z,13.30
2022-10-22T00:39:00.081Z,13.36
2022-10-22T00:44:05.245Z,13.32
2022-10-22T00:49:06.855Z,13.32
2022-10-22T00:54:09.017Z,13.35
2022-10-22T00:59:13.266Z,13.30
2022-10-22T01:04:14.904Z,13.29
2022-10-22T01:09:20.398Z,13.32
2022-10-22T01:15:00.097Z,13.31
2022-10-22T01:20:19.781Z,13.29
2022-10-22T01:25:28.178Z,13.25
2022-10-22T01:30:30.023Z,13.22
2022-10-22T01:35:36.864Z,13.18
2022-10-22T01:40:39.856Z,13.26
2022-10-22T01:45:48.590Z,13.23
2022-10-22T01:51:06.191Z,13.29
2022-10-22T01:56:24.898Z,13.43
2022-10-22T02:01:39.677Z,13.35
2022-10-22T02:06:43.661Z,13.38
2022-10-22T02:11:46.258Z,13.50
2022-10-22T02:16:50.065Z,13.58
2022-10-22T02:21:52.788Z,13.50
2022-10-22T02:27:15.829Z,13.44
2022-10-22T02:32:22.910Z,13.29
2022-10-22T02:37:25.849Z,13.09
2022-10-22T02:42:28.411Z,13.02
2022-10-22T02:47:29.878Z,12.96
2022-10-22T02:52:31.315Z,12.92
2022-10-22T02:57:32.937Z,12.82
2022-10-22T03:02:34.570Z,12.84
2022-10-22T03:07:36.081Z,12.68
2022-10-22T03:12:37.495Z,12.61
2022-10-22T03:17:39.236Z,12.55
2022-10-22T03:22:43.004Z,12.41
2022-10-22T03:27:45.221Z,12.39
2022-10-22T03:32:46.629Z,12.39
2022-10-22T03:37:48.213Z,12.39
2022-10-22T03:42:49.921Z,12.45
2022-10-22T03:47:51.313Z,12.48
2022-10-22T03:52:53.615Z,12.50
2022-10-22T03:57:55.050Z,12.73
2022-10-22T04:02:57.730Z,12.67
2022-10-22T04:07:59.276Z,12.79
2022-10-22T04:13:00.734Z,12.81
2022-10-22T04:18:02.159Z,12.71
2022-10-22T04:23:03.701Z,12.68
2022-10-22T04:28:09.135Z,12.58
2022-10-22T04:33:10.548Z,12.55
2022-10-22T04:38:12.149Z,12.51
2022-10-22T04:43:13.594Z,12.32
2022-10-22T04:48:15.038Z,12.33
2022-10-22T04:53:16.516Z,12.36
2022-10-22T04:58:18.072Z,12.33
2022-10-22T05:03:19.633Z,12.22
2022-10-22T05:08:21.206Z,12.11
2022-10-22T05:13:22.828Z,12.15
2022-10-22T05:18:24.248Z,12.20
2022-10-22T05:23:25.694Z,12.13
2022-10-22T05:28:27.220Z,12.11
2022-10-22T05:33:30.546Z,12.13
2022-10-22T05:38:33.244Z,12.13
2022-10-22T05:43:35.752Z,12.15
2022-10-22T05:48:37.844Z,12.13
2022-10-22T05:53:41.403Z,12.14
2022-10-22T05:58:44.329Z,12.10
2022-10-22T06:03:47.009Z,12.14
2022-10-22T06:08:50.612Z,12.11
2022-10-22T06:13:52.186Z,12.07
2022-10-22T06:18:53.610Z,12.13
2022-10-22T06:23:59.594Z,12.13
2022-10-22T06:29:01.184Z,12.15
2022-10-22T06:34:08.751Z,12.14
2022-10-22T06:39:15.006Z,12.12
2022-10-22T06:44:18.541Z,12.22
2022-10-22T06:49:21.080Z,12.22
2022-10-22T06:54:23.127Z,12.17
2022-10-22T06:59:24.595Z,12.23
2022-10-22T07:04:26.077Z,12.26
2022-10-22T07:09:27.553Z,12.25
2022-10-22T07:14:29.933Z,12.30
2022-10-22T07:19:31.557Z,12.34
2022-10-22T07:24:33.067Z,12.34
2022-10-22T07:29:34.801Z,12.44
2022-10-22T07:34:37.625Z,12.38
2022-10-22T07:39:40.924Z,12.44
2022-10-22T07:44:42.404Z,12.50
2022-10-22T07:49:43.913Z,12.62
2022-10-22T07:54:45.390Z,12.62
2022-10-22T07:59:48.535Z,12.56
2022-10-22T08:04:50.097Z,12.69
2022-10-22T08:09:51.627Z,12.68
2022-10-22T08:14:53.357Z,12.72
2022-10-22T08:19:54.780Z,12.98
2022-10-22T08:24:56.260Z,12.95
2022-10-22T08:29:57.674Z,12.98
2022-10-22T08:34:59.168Z,13.07
2022-10-22T08:40:00.735Z,13.15
2022-10-22T08:45:12.929Z,13.16
2022-10-22T08:50:30.948Z,13.18
2022-10-22T08:55:36.607Z,13.22
2022-10-22T09:00:46.761Z,13.24
2022-10-22T09:06:08.705Z,13.43
2022-10-22T09:11:12.932Z,13.56
2022-10-22T09:16:20.346Z,13.53
2022-10-22T09:21:34.276Z,13.65
2022-10-22T09:26:38.703Z,13.99
2022-10-22T09:31:40.287Z,14.32
2022-10-22T09:36:41.902Z,14.81
2022-10-22T09:41:43.370Z,14.83
2022-10-22T09:46:45.952Z,14.68
2022-10-22T09:51:58.677Z,15.12
2022-10-22T09:57:13.633Z,15.26
2022-10-22T10:02:33.598Z,15.72
2022-10-22T10:07:39.735Z,18.07
2022-10-22T10:12:56.610Z,23.08
2022-10-22T10:18:09.701Z,24.90
2022-10-22T10:23:28.376Z,26.84
2022-10-22T10:28:40.025Z,28.20
2022-10-22T10:34:00.470Z,28.34
2022-10-22T10:39:13.898Z,27.72
2022-10-22T10:44:37.766Z,27.55
2022-10-22T10:49:39.291Z,28.91
2022-10-22T10:54:50.041Z,29.37
2022-10-22T11:00:04.626Z,30.34
2022-10-22T11:05:37.532Z,29.57
2022-10-22T11:10:47.830Z,28.56
2022-10-22T11:15:59.521Z,29.86
2022-10-22T11:21:17.438Z,29.84
2022-10-22T11:26:46.795Z,30.24
2022-10-22T11:31:52.197Z,29.12
2022-10-22T11:36:54.858Z,30.57
2022-10-22T11:41:57.770Z,30.05
2022-10-22T11:47:13.877Z,30.59
2022-10-22T11:52:25.922Z,30.28
2022-10-22T11:57:39.243Z,28.76
2022-10-22T12:02:43.764Z,26.62
2022-10-22T12:07:57.177Z,23.51
2022-10-22T12:13:12.645Z,22.12
2022-10-22T12:18:15.171Z,20.74
2022-10-22T12:23:17.205Z,20.81
2022-10-22T12:28:18.976Z,21.44
2022-10-22T12:33:22.747Z,20.71
2022-10-22T12:38:25.448Z,20.16
2022-10-22T12:43:29.678Z,20.52
2022-10-22T12:48:37.180Z,22.18
2022-10-22T12:53:51.683Z,20.55
2022-10-22T12:59:03.773Z,19.55
2022-10-22T13:04:05.737Z,19.29
2022-10-22T13:09:16.458Z,18.86
2022-10-22T13:14:19.579Z,18.58
2022-10-22T13:19:41.763Z,18.20
2022-10-22T13:24:49.252Z,18.20
2022-10-22T13:29:50.908Z,18.12
2022-10-22T13:34:52.417Z,18.07
2022-10-22T13:39:53.904Z,17.96
2022-10-22T13:44:55.338Z,17.82
2022-10-22T13:49:59.573Z,17.61
2022-10-22T13:55:01.126Z,17.63
2022-10-22T14:00:02.768Z,17.71
2022-10-22T14:05:08.503Z,17.90
2022-10-22T14:10:17.804Z,17.94
2022-10-22T14:15:26.221Z,18.00
2022-10-22T14:20:32.761Z,18.03
2022-10-22T14:25:34.305Z,18.11
2022-10-22T14:30:35.849Z,18.08
2022-10-22T14:35:37.331Z,18.10
2022-10-22T14:40:40.085Z,17.98
2022-10-22T14:45:41.655Z,17.87
2022-10-22T14:50:44.542Z,17.56
2022-10-22T14:55:48.993Z,17.60
2022-10-22T15:00:50.477Z,17.37
2022-10-22T15:05:53.717Z,17.30
2022-10-22T15:11:01.017Z,17.02
2022-10-22T15:16:06.390Z,16.97
2022-10-22T15:21:16.342Z,16.72
2022-10-22T15:26:17.952Z,16.74
2022-10-22T15:31:49.528Z,16.73
2022-10-22T15:36:53.381Z,16.63
2022-10-22T15:41:55.675Z,16.56
2022-10-22T15:46:58.264Z,16.53
2022-10-22T15:51:59.800Z,16.46
2022-10-22T15:57:08.549Z,16.30
2022-10-22T16:02:11.483Z,16.19
2022-10-22T16:07:13.102Z,16.16
2022-10-22T16:12:17.179Z,15.95
2022-10-22T16:17:19.018Z,15.86
2022-10-22T16:22:20.461Z,15.60
2022-10-22T16:27:21.961Z,15.63
2022-10-22T16:32:23.582Z,15.54
2022-10-22T16:37:25.075Z,15.51
2022-10-22T16:42:26.569Z,15.37
2022-10-22T16:47:28.010Z,15.39
2022-10-22T16:52:29.416Z,15.44
2022-10-22T16:57:31.884Z,15.33
2022-10-22T17:02:33.428Z,15.30
2022-10-22T17:07:34.929Z,15.24
2022-10-22T17:12:36.592Z,15.39
2022-10-22T17:17:38.389Z,15.22
2022-10-22T17:22:40.159Z,15.12
2022-10-22T17:27:44.287Z,15.07
2022-10-22T17:32:46.039Z,14.91
2022-10-22T17:37:47.455Z,14.73
2022-10-22T17:42:49.533Z,14.91
2022-10-22T17:47:52.141Z,14.72
2022-10-22T17:52:53.682Z,14.59
2022-10-22T17:57:55.142Z,14.61
2022-10-22T18:02:56.576Z,14.67
2022-10-22T18:07:58.046Z,14.62
2022-10-22T18:12:59.558Z,14.58
2022-10-22T18:18:01.018Z,14.43
2022-10-22T18:23:03.594Z,14.45
2022-10-22T18:28:05.163Z,14.49
2022-10-22T18:33:07.436Z,14.53
2022-10-22T18:38:10.022Z,14.50
2022-10-22T18:43:11.549Z,14.36
2022-10-22T18:48:15.889Z,14.33
2022-10-22T18:53:17.316Z,14.30
2022-10-22T18:58:18.788Z,14.26
2022-10-22T19:03:20.299Z,14.09
2022-10-22T19:08:21.720Z,14.08
2022-10-22T19:13:25.435Z,14.13
2022-10-22T19:18:27.190Z,14.13
2022-10-22T19:23:32.156Z,14.09
2022-10-22T19:28:34.039Z,13.99
2022-10-22T19:33:36.516Z,14.03
2022-10-22T19:38:39.872Z,13.97
2022-10-22T19:43:42.920Z,13.83
2022-10-22T19:53:47.379Z,13.62
2022-10-22T19:58:48.840Z,13.45
2022-10-22T20:03:50.348Z,13.30
2022-10-22T20:08:55.405Z,13.31
2022-10-22T20:13:58.340Z,13.25
2022-10-22T20:19:02.176Z,13.37
2022-10-22T20:24:04.149Z,13.24
2022-10-22T20:29:05.731Z,13.07
2022-10-22T20:34:07.220Z,13.15
2022-10-22T20:39:11.946Z,13.14
2022-10-22T20:44:16.376Z,13.14
2022-10-22T20:49:18.050Z,13.18
2022-10-22T20:54:20.128Z,13.20
2022-10-22T20:59:21.690Z,13.25
2022-10-22T21:04:23.249Z,13.25
2022-10-22T21:09:25.164Z,13.19
2022-10-22T21:14:26.651Z,13.16
2022-10-22T21:19:28.253Z,13.12
2022-10-22T21:24:29.860Z,13.02
2022-10-22T21:29:31.380Z,12.97
2022-10-22T21:34:38.100Z,13.05
2022-10-22T21:39:42.132Z,13.03
2022-10-22T21:44:43.949Z,12.97
2022-10-22T21:49:45.366Z,12.91
2022-10-22T21:54:46.878Z,12.88
2022-10-22T21:59:48.325Z,12.82
2022-10-22T22:04:52.454Z,12.72
2022-10-22T22:09:54.087Z,12.63
2022-10-22T22:14:55.539Z,12.51
2022-10-22T22:19:56.998Z,12.38
2022-10-22T22:24:58.395Z,12.21
2022-10-22T22:29:59.847Z,12.30
2022-10-22T22:35:01.389Z,12.22
2022-10-22T22:40:04.581Z,12.14
2022-10-22T22:45:06.432Z,12.16
2022-10-22T22:50:08.160Z,12.10
2022-10-22T22:55:10.731Z,11.87
2022-10-22T23:00:13.245Z,11.95
2022-10-22T23:05:14.694Z,11.80
2022-10-22T23:10:16.335Z,11.75
2022-10-22T23:15:17.829Z,11.74
2022-10-22T23:20:19.284Z,11.75
2022-10-22T23:25:20.716Z,11.69
2022-10-22T23:30:22.197Z,11.72
2022-10-22T23:35:23.674Z,11.68
2022-10-22T23:40:25.089Z,11.78
2022-10-22T23:45:26.671Z,11.77
2022-10-22T23:50:28.652Z,11.62
2022-10-22T23:55:30.145Z,11.66
